Terminal Aerodrome Forecast
Issued by NWS Sterling, VA

Current Version | Previous Version | Text Only | Print | Product List | Glossary Off
Versions: 1 2 3 4 5 6 7 8 9 10 11 12 13 14 15 16 17 18 19 20

000
FTUS41 KLWX 240500
TAFMRB
TAF
KMRB 240539Z 2406/2506 00000KT 1/2SM RA FG OVC003
     FM240900 VRB03KT 2SM RA BR OVC003
     FM241400 VRB03KT 6SM RA BR OVC003
     FM242200 16007KT 2SM RA OVC008 WS020/21035KT
     FM250000 18007KT 5SM SHRA OVC003
     FM250200 20009KT 5SM SHRA OVC010
     FM250500 25012KT P6SM OVC090=

USA.gov is the U.S. government's official web portal to all federal, state and local government web resources and services.